sensor_id;sensor_type;location;lat;lon;timestamp;pressure;altitude;pressure_sealevel;temperature
33267;BMP180;19638;49.080;11.896;2023-09-19T00:00:14;95938.00;;;16.50
33267;BMP180;19638;49.080;11.896;2023-09-19T00:04:22;95938.00;;;16.50
33267;BMP180;19638;49.080;11.896;2023-09-19T00:08:30;95936.00;;;16.60
33267;BMP180;19638;49.080;11.896;2023-09-19T00:12:35;95935.00;;;16.70
33267;BMP180;19638;49.080;11.896;2023-09-19T00:16:39;95928.00;;;16.70
33267;BMP180;19638;49.080;11.896;2023-09-19T00:20:45;95935.00;;;16.80
33267;BMP180;19638;49.080;11.896;2023-09-19T00:24:56;95937.00;;;16.90
33267;BMP180;19638;49.080;11.896;2023-09-19T00:28:59;95940.00;;;16.90
33267;BMP180;19638;49.080;11.896;2023-09-19T00:33:11;95926.00;;;16.90
33267;BMP180;19638;49.080;11.896;2023-09-19T00:37:20;95937.00;;;16.90
33267;BMP180;19638;49.080;11.896;2023-09-19T00:41:27;95924.00;;;16.80
33267;BMP180;19638;49.080;11.896;2023-09-19T00:45:33;95926.00;;;16.80
33267;BMP180;19638;49.080;11.896;2023-09-19T00:49:42;95934.00;;;16.80
33267;BMP180;19638;49.080;11.896;2023-09-19T00:53:49;95942.00;;;16.80
33267;BMP180;19638;49.080;11.896;2023-09-19T00:57:52;95946.00;;;16.70
33267;BMP180;19638;49.080;11.896;2023-09-19T01:01:56;95942.00;;;16.80
33267;BMP180;19638;49.080;11.896;2023-09-19T01:06:05;95939.00;;;16.80
33267;BMP180;19638;49.080;11.896;2023-09-19T01:10:13;95947.00;;;16.90
33267;BMP180;19638;49.080;11.896;2023-09-19T01:14:23;95947.00;;;16.90
33267;BMP180;19638;49.080;11.896;2023-09-19T01:18:39;95953.00;;;16.90
33267;BMP180;19638;49.080;11.896;2023-09-19T01:22:53;95948.00;;;16.90
33267;BMP180;19638;49.080;11.896;2023-09-19T01:27:17;95949.00;;;17.00
33267;BMP180;19638;49.080;11.896;2023-09-19T01:31:31;95952.00;;;17.00
33267;BMP180;19638;49.080;11.896;2023-09-19T01:35:38;95958.00;;;17.00
33267;BMP180;19638;49.080;11.896;2023-09-19T01:39:44;95963.00;;;17.00
33267;BMP180;19638;49.080;11.896;2023-09-19T01:43:51;95977.00;;;17.00
33267;BMP180;19638;49.080;11.896;2023-09-19T01:48:08;95973.00;;;17.00
33267;BMP180;19638;49.080;11.896;2023-09-19T01:52:20;95976.00;;;17.00
33267;BMP180;19638;49.080;11.896;2023-09-19T01:56:29;95970.00;;;17.00
33267;BMP180;19638;49.080;11.896;2023-09-19T02:00:41;95974.00;;;17.00
33267;BMP180;19638;49.080;11.896;2023-09-19T02:04:54;95970.00;;;17.00
33267;BMP180;19638;49.080;11.896;2023-09-19T02:08:58;95973.00;;;17.10
33267;BMP180;19638;49.080;11.896;2023-09-19T02:13:02;95964.00;;;17.10
33267;BMP180;19638;49.080;11.896;2023-09-19T02:17:07;95976.00;;;17.10
33267;BMP180;19638;49.080;11.896;2023-09-19T02:21:17;95978.00;;;17.00
33267;BMP180;19638;49.080;11.896;2023-09-19T02:25:20;95981.00;;;17.00
33267;BMP180;19638;49.080;11.896;2023-09-19T02:29:25;95977.00;;;17.00
33267;BMP180;19638;49.080;11.896;2023-09-19T02:33:28;95970.00;;;17.00
33267;BMP180;19638;49.080;11.896;2023-09-19T02:37:39;95971.00;;;16.90
33267;BMP180;19638;49.080;11.896;2023-09-19T02:41:42;95982.00;;;17.00
33267;BMP180;19638;49.080;11.896;2023-09-19T02:45:48;95981.00;;;17.00
33267;BMP180;19638;49.080;11.896;2023-09-19T02:49:52;95982.00;;;17.00
33267;BMP180;19638;49.080;11.896;2023-09-19T02:54:01;95995.00;;;16.90
33267;BMP180;19638;49.080;11.896;2023-09-19T02:58:08;95998.00;;;16.90
33267;BMP180;19638;49.080;11.896;2023-09-19T03:02:15;95998.00;;;16.90
33267;BMP180;19638;49.080;11.896;2023-09-19T03:06:20;96004.00;;;16.90
33267;BMP180;19638;49.080;11.896;2023-09-19T03:10:25;96003.00;;;16.90
33267;BMP180;19638;49.080;11.896;2023-09-19T03:14:35;96014.00;;;16.90
33267;BMP180;19638;49.080;11.896;2023-09-19T03:18:40;96016.00;;;16.90
33267;BMP180;19638;49.080;11.896;2023-09-19T03:22:43;96024.00;;;16.90
33267;BMP180;19638;49.080;11.896;2023-09-19T03:26:51;96024.00;;;17.00
33267;BMP180;19638;49.080;11.896;2023-09-19T03:30:58;96034.00;;;17.00
33267;BMP180;19638;49.080;11.896;2023-09-19T03:35:04;96031.00;;;17.00
33267;BMP180;19638;49.080;11.896;2023-09-19T03:39:08;96026.00;;;17.00
33267;BMP180;19638;49.080;11.896;2023-09-19T03:43:13;96027.00;;;16.90
33267;BMP180;19638;49.080;11.896;2023-09-19T03:47:18;96033.00;;;16.90
33267;BMP180;19638;49.080;11.896;2023-09-19T03:51:24;96034.00;;;16.90
33267;BMP180;19638;49.080;11.896;2023-09-19T03:55:27;96033.00;;;16.90
33267;BMP180;19638;49.080;11.896;2023-09-19T03:59:33;96030.00;;;16.90
33267;BMP180;19638;49.080;11.896;2023-09-19T04:03:39;96032.00;;;16.90
33267;BMP180;19638;49.080;11.896;2023-09-19T04:07:53;96037.00;;;16.90
33267;BMP180;19638;49.080;11.896;2023-09-19T04:12:06;96042.00;;;16.90
33267;BMP180;19638;49.080;11.896;2023-09-19T04:16:12;96042.00;;;16.90
33267;BMP180;19638;49.080;11.896;2023-09-19T04:20:16;96051.00;;;16.90
33267;BMP180;19638;49.080;11.896;2023-09-19T04:24:24;96051.00;;;17.00
33267;BMP180;19638;49.080;11.896;2023-09-19T04:28:28;96050.00;;;16.90
33267;BMP180;19638;49.080;11.896;2023-09-19T04:32:35;96046.00;;;16.90
33267;BMP180;19638;49.080;11.896;2023-09-19T04:36:40;96053.00;;;16.90
33267;BMP180;19638;49.080;11.896;2023-09-19T04:40:45;96060.00;;;16.90
33267;BMP180;19638;49.080;11.896;2023-09-19T04:44:50;96063.00;;;16.90
33267;BMP180;19638;49.080;11.896;2023-09-19T04:48:56;96074.00;;;16.90
33267;BMP180;19638;49.080;11.896;2023-09-19T04:53:01;96074.00;;;16.90
33267;BMP180;19638;49.080;11.896;2023-09-19T04:57:05;96076.00;;;16.90
33267;BMP180;19638;49.080;11.896;2023-09-19T05:01:09;96078.00;;;17.00
33267;BMP180;19638;49.080;11.896;2023-09-19T05:05:15;96079.00;;;16.90
33267;BMP180;19638;49.080;11.896;2023-09-19T05:09:22;96084.00;;;17.00
33267;BMP180;19638;49.080;11.896;2023-09-19T05:13:28;96082.00;;;17.00
33267;BMP180;19638;49.080;11.896;2023-09-19T05:17:33;96078.00;;;17.00
33267;BMP180;19638;49.080;11.896;2023-09-19T05:21:40;96088.00;;;17.10
33267;BMP180;19638;49.080;11.896;2023-09-19T05:25:43;96080.00;;;17.00
33267;BMP180;19638;49.080;11.896;2023-09-19T05:29:48;96088.00;;;16.90
33267;BMP180;19638;49.080;11.896;2023-09-19T05:33:52;96096.00;;;16.90
33267;BMP180;19638;49.080;11.896;2023-09-19T05:37:57;96091.00;;;16.80
33267;BMP180;19638;49.080;11.896;2023-09-19T05:42:03;96097.00;;;16.70
33267;BMP180;19638;49.080;11.896;2023-09-19T05:46:11;96099.00;;;16.60
33267;BMP180;19638;49.080;11.896;2023-09-19T05:50:14;96101.00;;;16.50
33267;BMP180;19638;49.080;11.896;2023-09-19T05:54:19;96097.00;;;16.50
33267;BMP180;19638;49.080;11.896;2023-09-19T05:58:24;96096.00;;;16.50
33267;BMP180;19638;49.080;11.896;2023-09-19T06:02:29;96104.00;;;16.50
33267;BMP180;19638;49.080;11.896;2023-09-19T06:06:34;96114.00;;;16.50
33267;BMP180;19638;49.080;11.896;2023-09-19T06:10:42;96122.00;;;16.80
33267;BMP180;19638;49.080;11.896;2023-09-19T06:14:48;96119.00;;;17.10
33267;BMP180;19638;49.080;11.896;2023-09-19T06:18:52;96137.00;;;17.30
33267;BMP180;19638;49.080;11.896;2023-09-19T06:22:56;96138.00;;;17.40
33267;BMP180;19638;49.080;11.896;2023-09-19T06:27:04;96127.00;;;17.50
33267;BMP180;19638;49.080;11.896;2023-09-19T06:31:12;96138.00;;;17.60
33267;BMP180;19638;49.080;11.896;2023-09-19T06:35:18;96149.00;;;17.70
33267;BMP180;19638;49.080;11.896;2023-09-19T06:39:22;96147.00;;;17.80
33267;BMP180;19638;49.080;11.896;2023-09-19T06:43:26;96147.00;;;17.80
33267;BMP180;19638;49.080;11.896;2023-09-19T06:47:30;96149.00;;;17.90
33267;BMP180;19638;49.080;11.896;2023-09-19T06:51:35;96157.00;;;18.10
33267;BMP180;19638;49.080;11.896;2023-09-19T06:55:39;96159.00;;;18.20
33267;BMP180;19638;49.080;11.896;2023-09-19T06:59:43;96155.00;;;18.30
33267;BMP180;19638;49.080;11.896;2023-09-19T07:03:50;96165.00;;;18.40
33267;BMP180;19638;49.080;11.896;2023-09-19T07:07:55;96170.00;;;18.40
33267;BMP180;19638;49.080;11.896;2023-09-19T07:12:02;96176.00;;;18.60
33267;BMP180;19638;49.080;11.896;2023-09-19T07:16:08;96172.00;;;18.80
33267;BMP180;19638;49.080;11.896;2023-09-19T07:20:20;96175.00;;;19.10
33267;BMP180;19638;49.080;11.896;2023-09-19T07:24:24;96191.00;;;19.00
33267;BMP180;19638;49.080;11.896;2023-09-19T07:28:30;96180.00;;;18.90
33267;BMP180;19638;49.080;11.896;2023-09-19T07:32:38;96181.00;;;18.90
33267;BMP180;19638;49.080;11.896;2023-09-19T07:36:44;96182.00;;;18.90
33267;BMP180;19638;49.080;11.896;2023-09-19T07:40:50;96197.00;;;19.10
33267;BMP180;19638;49.080;11.896;2023-09-19T07:44:55;96196.00;;;19.30
33267;BMP180;19638;49.080;11.896;2023-09-19T07:49:00;96205.00;;;19.40
33267;BMP180;19638;49.080;11.896;2023-09-19T07:53:06;96208.00;;;19.70
33267;BMP180;19638;49.080;11.896;2023-09-19T07:57:10;96216.00;;;19.80
33267;BMP180;19638;49.080;11.896;2023-09-19T08:01:13;96217.00;;;19.80
33267;BMP180;19638;49.080;11.896;2023-09-19T08:05:19;96222.00;;;19.70
33267;BMP180;19638;49.080;11.896;2023-09-19T08:09:24;96222.00;;;19.70
33267;BMP180;19638;49.080;11.896;2023-09-19T08:13:28;96223.00;;;19.80
33267;BMP180;19638;49.080;11.896;2023-09-19T08:17:34;96227.00;;;19.80
33267;BMP180;19638;49.080;11.896;2023-09-19T08:21:40;96230.00;;;20.10
33267;BMP180;19638;49.080;11.896;2023-09-19T08:25:50;96234.00;;;20.50
33267;BMP180;19638;49.080;11.896;2023-09-19T08:29:53;96235.00;;;20.70
33267;BMP180;19638;49.080;11.896;2023-09-19T08:33:56;96237.00;;;21.50
33267;BMP180;19638;49.080;11.896;2023-09-19T08:38:01;96247.00;;;21.50
33267;BMP180;19638;49.080;11.896;2023-09-19T08:42:08;96242.00;;;21.60
33267;BMP180;19638;49.080;11.896;2023-09-19T08:46:15;96250.00;;;21.60
33267;BMP180;19638;49.080;11.896;2023-09-19T08:50:26;96265.00;;;21.50
33267;BMP180;19638;49.080;11.896;2023-09-19T08:54:35;96255.00;;;21.10
33267;BMP180;19638;49.080;11.896;2023-09-19T08:58:45;96266.00;;;21.00
33267;BMP180;19638;49.080;11.896;2023-09-19T09:02:50;96272.00;;;21.10
33267;BMP180;19638;49.080;11.896;2023-09-19T09:06:54;96275.00;;;21.20
33267;BMP180;19638;49.080;11.896;2023-09-19T09:11:02;96276.00;;;21.30
33267;BMP180;19638;49.080;11.896;2023-09-19T09:15:17;96278.00;;;21.50
33267;BMP180;19638;49.080;11.896;2023-09-19T09:19:25;96283.00;;;21.30
33267;BMP180;19638;49.080;11.896;2023-09-19T09:23:28;96269.00;;;20.90
33267;BMP180;19638;49.080;11.896;2023-09-19T09:27:35;96275.00;;;20.80
33267;BMP180;19638;49.080;11.896;2023-09-19T09:31:38;96296.00;;;21.30
33267;BMP180;19638;49.080;11.896;2023-09-19T09:35:48;96291.00;;;21.50
33267;BMP180;19638;49.080;11.896;2023-09-19T09:39:59;96305.00;;;21.60
33267;BMP180;19638;49.080;11.896;2023-09-19T09:44:22;96298.00;;;21.80
33267;BMP180;19638;49.080;11.896;2023-09-19T09:48:27;96304.00;;;22.00
33267;BMP180;19638;49.080;11.896;2023-09-19T09:52:45;96297.00;;;22.10
33267;BMP180;19638;49.080;11.896;2023-09-19T09:56:52;96299.00;;;22.40
33267;BMP180;19638;49.080;11.896;2023-09-19T10:01:03;96288.00;;;22.70
33267;BMP180;19638;49.080;11.896;2023-09-19T10:05:13;96291.00;;;22.80
33267;BMP180;19638;49.080;11.896;2023-09-19T10:09:23;96307.00;;;22.90
33267;BMP180;19638;49.080;11.896;2023-09-19T10:13:38;96308.00;;;23.00
33267;BMP180;19638;49.080;11.896;2023-09-19T10:17:48;96312.00;;;23.50
33267;BMP180;19638;49.080;11.896;2023-09-19T10:21:53;96318.00;;;23.90
33267;BMP180;19638;49.080;11.896;2023-09-19T10:26:02;96311.00;;;23.50
33267;BMP180;19638;49.080;11.896;2023-09-19T10:30:17;96309.00;;;23.80
33267;BMP180;19638;49.080;11.896;2023-09-19T10:34:23;96303.00;;;23.90
33267;BMP180;19638;49.080;11.896;2023-09-19T10:38:28;96307.00;;;24.10
33267;BMP180;19638;49.080;11.896;2023-09-19T10:42:33;96304.00;;;24.40
33267;BMP180;19638;49.080;11.896;2023-09-19T10:46:40;96307.00;;;24.60
33267;BMP180;19638;49.080;11.896;2023-09-19T10:50:49;96319.00;;;24.50
33267;BMP180;19638;49.080;11.896;2023-09-19T10:54:55;96317.00;;;24.10
33267;BMP180;19638;49.080;11.896;2023-09-19T10:59:09;96310.00;;;23.90
33267;BMP180;19638;49.080;11.896;2023-09-19T11:03:19;96317.00;;;24.00
33267;BMP180;19638;49.080;11.896;2023-09-19T11:07:26;96320.00;;;23.90
33267;BMP180;19638;49.080;11.896;2023-09-19T11:11:43;96308.00;;;24.00
33267;BMP180;19638;49.080;11.896;2023-09-19T11:16:04;96307.00;;;23.80
33267;BMP180;19638;49.080;11.896;2023-09-19T11:20:20;96306.00;;;23.80
33267;BMP180;19638;49.080;11.896;2023-09-19T11:24:45;96318.00;;;24.00
33267;BMP180;19638;49.080;11.896;2023-09-19T11:33:28;96319.00;;;23.70
33267;BMP180;19638;49.080;11.896;2023-09-19T11:38:00;96306.00;;;24.10
33267;BMP180;19638;49.080;11.896;2023-09-19T11:42:44;96310.00;;;24.00
33267;BMP180;19638;49.080;11.896;2023-09-19T11:46:55;96310.00;;;24.10
33267;BMP180;19638;49.080;11.896;2023-09-19T11:51:01;96313.00;;;24.30
33267;BMP180;19638;49.080;11.896;2023-09-19T11:55:10;96304.00;;;24.40
33267;BMP180;19638;49.080;11.896;2023-09-19T11:59:20;96307.00;;;24.60
33267;BMP180;19638;49.080;11.896;2023-09-19T12:03:32;96309.00;;;24.70
33267;BMP180;19638;49.080;11.896;2023-09-19T12:07:47;96295.00;;;24.50
33267;BMP180;19638;49.080;11.896;2023-09-19T12:11:54;96305.00;;;24.00
33267;BMP180;19638;49.080;11.896;2023-09-19T12:15:59;96314.00;;;23.80
33267;BMP180;19638;49.080;11.896;2023-09-19T12:20:03;96319.00;;;23.50
33267;BMP180;19638;49.080;11.896;2023-09-19T12:24:14;96321.00;;;23.30
33267;BMP180;19638;49.080;11.896;2023-09-19T12:28:21;96305.00;;;23.30
33267;BMP180;19638;49.080;11.896;2023-09-19T12:32:35;96297.00;;;23.10
33267;BMP180;19638;49.080;11.896;2023-09-19T12:36:47;96290.00;;;23.10
33267;BMP180;19638;49.080;11.896;2023-09-19T12:40:54;96284.00;;;23.20
33267;BMP180;19638;49.080;11.896;2023-09-19T12:44:58;96286.00;;;23.10
33267;BMP180;19638;49.080;11.896;2023-09-19T12:49:17;96286.00;;;23.00
33267;BMP180;19638;49.080;11.896;2023-09-19T12:53:26;96285.00;;;23.20
33267;BMP180;19638;49.080;11.896;2023-09-19T12:57:31;96284.00;;;23.60
33267;BMP180;19638;49.080;11.896;2023-09-19T13:01:36;96281.00;;;24.00
33267;BMP180;19638;49.080;11.896;2023-09-19T13:05:55;96282.00;;;24.00
33267;BMP180;19638;49.080;11.896;2023-09-19T13:10:03;96281.00;;;23.90
33267;BMP180;19638;49.080;11.896;2023-09-19T13:14:17;96286.00;;;23.90
33267;BMP180;19638;49.080;11.896;2023-09-19T13:18:21;96274.00;;;23.80
33267;BMP180;19638;49.080;11.896;2023-09-19T13:22:39;96265.00;;;23.80
33267;BMP180;19638;49.080;11.896;2023-09-19T13:26:45;96273.00;;;23.90
33267;BMP180;19638;49.080;11.896;2023-09-19T13:30:48;96274.00;;;23.90
33267;BMP180;19638;49.080;11.896;2023-09-19T13:34:52;96268.00;;;23.80
33267;BMP180;19638;49.080;11.896;2023-09-19T13:38:57;96268.00;;;23.70
33267;BMP180;19638;49.080;11.896;2023-09-19T13:43:04;96267.00;;;23.60
33267;BMP180;19638;49.080;11.896;2023-09-19T13:47:08;96283.00;;;23.60
33267;BMP180;19638;49.080;11.896;2023-09-19T13:51:15;96275.00;;;23.80
33267;BMP180;19638;49.080;11.896;2023-09-19T13:55:23;96279.00;;;24.00
33267;BMP180;19638;49.080;11.896;2023-09-19T13:59:31;96279.00;;;24.40
33267;BMP180;19638;49.080;11.896;2023-09-19T14:03:37;96272.00;;;24.80
33267;BMP180;19638;49.080;11.896;2023-09-19T14:07:43;96267.00;;;24.90
33267;BMP180;19638;49.080;11.896;2023-09-19T14:11:50;96266.00;;;25.00
33267;BMP180;19638;49.080;11.896;2023-09-19T14:16:02;96264.00;;;25.30
33267;BMP180;19638;49.080;11.896;2023-09-19T14:20:09;96269.00;;;25.50
33267;BMP180;19638;49.080;11.896;2023-09-19T14:24:16;96255.00;;;25.50
33267;BMP180;19638;49.080;11.896;2023-09-19T14:28:24;96248.00;;;25.30
33267;BMP180;19638;49.080;11.896;2023-09-19T14:32:31;96252.00;;;25.10
33267;BMP180;19638;49.080;11.896;2023-09-19T14:36:37;96248.00;;;25.20
33267;BMP180;19638;49.080;11.896;2023-09-19T14:40:41;96238.00;;;25.20
33267;BMP180;19638;49.080;11.896;2023-09-19T14:44:46;96240.00;;;25.10
33267;BMP180;19638;49.080;11.896;2023-09-19T14:48:52;96211.00;;;25.10
33267;BMP180;19638;49.080;11.896;2023-09-19T14:52:59;96230.00;;;24.80
33267;BMP180;19638;49.080;11.896;2023-09-19T14:57:04;96234.00;;;24.60
33267;BMP180;19638;49.080;11.896;2023-09-19T15:01:10;96241.00;;;24.50
33267;BMP180;19638;49.080;11.896;2023-09-19T15:05:18;96244.00;;;24.40
33267;BMP180;19638;49.080;11.896;2023-09-19T15:09:26;96238.00;;;24.40
33267;BMP180;19638;49.080;11.896;2023-09-19T15:13:29;96232.00;;;24.40
33267;BMP180;19638;49.080;11.896;2023-09-19T15:17:39;96243.00;;;24.20
33267;BMP180;19638;49.080;11.896;2023-09-19T15:21:43;96236.00;;;24.10
33267;BMP180;19638;49.080;11.896;2023-09-19T15:25:50;96238.00;;;24.10
33267;BMP180;19638;49.080;11.896;2023-09-19T15:29:53;96229.00;;;24.10
33267;BMP180;19638;49.080;11.896;2023-09-19T15:33:58;96240.00;;;24.00
33267;BMP180;19638;49.080;11.896;2023-09-19T15:38:04;96229.00;;;24.00
33267;BMP180;19638;49.080;11.896;2023-09-19T15:42:10;96245.00;;;24.00
33267;BMP180;19638;49.080;11.896;2023-09-19T15:46:13;96238.00;;;24.10
33267;BMP180;19638;49.080;11.896;2023-09-19T15:50:18;96232.00;;;24.20
33267;BMP180;19638;49.080;11.896;2023-09-19T15:54:24;96222.00;;;24.30
33267;BMP180;19638;49.080;11.896;2023-09-19T15:58:29;96229.00;;;24.30
33267;BMP180;19638;49.080;11.896;2023-09-19T16:02:37;96222.00;;;24.50
33267;BMP180;19638;49.080;11.896;2023-09-19T16:06:42;96235.00;;;24.50
33267;BMP180;19638;49.080;11.896;2023-09-19T16:10:47;96229.00;;;24.40
33267;BMP180;19638;49.080;11.896;2023-09-19T16:14:52;96233.00;;;24.30
33267;BMP180;19638;49.080;11.896;2023-09-19T16:18:56;96232.00;;;23.90
33267;BMP180;19638;49.080;11.896;2023-09-19T16:23:06;96241.00;;;23.60
33267;BMP180;19638;49.080;11.896;2023-09-19T16:27:12;96234.00;;;23.20
33267;BMP180;19638;49.080;11.896;2023-09-19T16:31:21;96236.00;;;22.80
33267;BMP180;19638;49.080;11.896;2023-09-19T16:35:25;96228.00;;;22.50
33267;BMP180;19638;49.080;11.896;2023-09-19T16:39:29;96232.00;;;22.20
33267;BMP180;19638;49.080;11.896;2023-09-19T16:43:35;96232.00;;;21.90
33267;BMP180;19638;49.080;11.896;2023-09-19T16:47:41;96243.00;;;21.70
33267;BMP180;19638;49.080;11.896;2023-09-19T16:51:53;96232.00;;;21.40
33267;BMP180;19638;49.080;11.896;2023-09-19T16:56:02;96235.00;;;21.20
33267;BMP180;19638;49.080;11.896;2023-09-19T17:00:07;96232.00;;;21.00
33267;BMP180;19638;49.080;11.896;2023-09-19T17:04:12;96235.00;;;20.70
33267;BMP180;19638;49.080;11.896;2023-09-19T17:08:21;96229.00;;;20.40
33267;BMP180;19638;49.080;11.896;2023-09-19T17:12:27;96228.00;;;20.00
33267;BMP180;19638;49.080;11.896;2023-09-19T17:16:32;96236.00;;;19.60
33267;BMP180;19638;49.080;11.896;2023-09-19T17:20:41;96243.00;;;19.20
33267;BMP180;19638;49.080;11.896;2023-09-19T17:24:45;96243.00;;;18.80
33267;BMP180;19638;49.080;11.896;2023-09-19T17:28:51;96244.00;;;18.50
33267;BMP180;19638;49.080;11.896;2023-09-19T17:32:55;96245.00;;;18.20
33267;BMP180;19638;49.080;11.896;2023-09-19T17:36:58;96248.00;;;17.90
33267;BMP180;19638;49.080;11.896;2023-09-19T17:41:04;96241.00;;;17.60
33267;BMP180;19638;49.080;11.896;2023-09-19T17:45:13;96240.00;;;17.20
33267;BMP180;19638;49.080;11.896;2023-09-19T17:49:17;96245.00;;;17.00
33267;BMP180;19638;49.080;11.896;2023-09-19T17:53:23;96242.00;;;16.80
33267;BMP180;19638;49.080;11.896;2023-09-19T17:57:32;96245.00;;;16.70
33267;BMP180;19638;49.080;11.896;2023-09-19T18:01:36;96241.00;;;16.60
33267;BMP180;19638;49.080;11.896;2023-09-19T18:05:43;96252.00;;;16.40
33267;BMP180;19638;49.080;11.896;2023-09-19T18:09:51;96254.00;;;16.20
33267;BMP180;19638;49.080;11.896;2023-09-19T18:13:56;96256.00;;;16.10
33267;BMP180;19638;49.080;11.896;2023-09-19T18:18:03;96261.00;;;15.90
33267;BMP180;19638;49.080;11.896;2023-09-19T18:22:10;96270.00;;;15.80
33267;BMP180;19638;49.080;11.896;2023-09-19T18:26:14;96278.00;;;15.70
33267;BMP180;19638;49.080;11.896;2023-09-19T18:30:23;96276.00;;;15.60
33267;BMP180;19638;49.080;11.896;2023-09-19T18:34:29;96283.00;;;15.60
33267;BMP180;19638;49.080;11.896;2023-09-19T18:38:37;96281.00;;;15.50
33267;BMP180;19638;49.080;11.896;2023-09-19T18:42:42;96286.00;;;15.40
33267;BMP180;19638;49.080;11.896;2023-09-19T18:46:48;96277.00;;;15.30
33267;BMP180;19638;49.080;11.896;2023-09-19T18:50:54;96283.00;;;15.20
33267;BMP180;19638;49.080;11.896;2023-09-19T18:54:57;96280.00;;;15.10
33267;BMP180;19638;49.080;11.896;2023-09-19T18:59:01;96277.00;;;14.90
33267;BMP180;19638;49.080;11.896;2023-09-19T19:03:05;96281.00;;;14.80
33267;BMP180;19638;49.080;11.896;2023-09-19T19:07:14;96286.00;;;14.70
33267;BMP180;19638;49.080;11.896;2023-09-19T19:11:24;96292.00;;;14.70
33267;BMP180;19638;49.080;11.896;2023-09-19T19:15:33;96277.00;;;14.60
33267;BMP180;19638;49.080;11.896;2023-09-19T19:19:37;96286.00;;;14.60
33267;BMP180;19638;49.080;11.896;2023-09-19T19:23:42;96295.00;;;14.50
33267;BMP180;19638;49.080;11.896;2023-09-19T19:27:45;96297.00;;;14.30
33267;BMP180;19638;49.080;11.896;2023-09-19T19:31:50;96291.00;;;14.40
33267;BMP180;19638;49.080;11.896;2023-09-19T19:36:03;96290.00;;;14.30
33267;BMP180;19638;49.080;11.896;2023-09-19T19:40:15;96294.00;;;14.30
33267;BMP180;19638;49.080;11.896;2023-09-19T19:44:18;96294.00;;;14.20
33267;BMP180;19638;49.080;11.896;2023-09-19T19:48:24;96300.00;;;14.20
33267;BMP180;19638;49.080;11.896;2023-09-19T19:52:29;96305.00;;;14.20
33267;BMP180;19638;49.080;11.896;2023-09-19T19:56:36;96308.00;;;14.10
33267;BMP180;19638;49.080;11.896;2023-09-19T20:00:41;96308.00;;;14.00
33267;BMP180;19638;49.080;11.896;2023-09-19T20:04:47;96302.00;;;14.00
33267;BMP180;19638;49.080;11.896;2023-09-19T20:08:51;96308.00;;;14.00
33267;BMP180;19638;49.080;11.896;2023-09-19T20:12:55;96302.00;;;14.00
33267;BMP180;19638;49.080;11.896;2023-09-19T20:17:02;96304.00;;;13.90
33267;BMP180;19638;49.080;11.896;2023-09-19T20:21:08;96317.00;;;13.90
33267;BMP180;19638;49.080;11.896;2023-09-19T20:25:17;96314.00;;;13.90
33267;BMP180;19638;49.080;11.896;2023-09-19T20:29:25;96318.00;;;13.80
33267;BMP180;19638;49.080;11.896;2023-09-19T20:33:34;96323.00;;;13.70
33267;BMP180;19638;49.080;11.896;2023-09-19T20:37:39;96322.00;;;13.60
33267;BMP180;19638;49.080;11.896;2023-09-19T20:41:42;96323.00;;;13.50
33267;BMP180;19638;49.080;11.896;2023-09-19T20:45:48;96321.00;;;13.40
33267;BMP180;19638;49.080;11.896;2023-09-19T20:49:54;96327.00;;;13.40
33267;BMP180;19638;49.080;11.896;2023-09-19T20:53:58;96319.00;;;13.30
33267;BMP180;19638;49.080;11.896;2023-09-19T20:58:04;96318.00;;;13.30
33267;BMP180;19638;49.080;11.896;2023-09-19T21:02:11;96323.00;;;13.30
33267;BMP180;19638;49.080;11.896;2023-09-19T21:06:15;96323.00;;;13.40
33267;BMP180;19638;49.080;11.896;2023-09-19T21:10:20;96322.00;;;13.40
33267;BMP180;19638;49.080;11.896;2023-09-19T21:14:24;96324.00;;;13.40
33267;BMP180;19638;49.080;11.896;2023-09-19T21:18:28;96311.00;;;13.30
33267;BMP180;19638;49.080;11.896;2023-09-19T21:22:32;96322.00;;;13.30
33267;BMP180;19638;49.080;11.896;2023-09-19T21:26:35;96318.00;;;13.20
33267;BMP180;19638;49.080;11.896;2023-09-19T21:30:38;96315.00;;;13.20
33267;BMP180;19638;49.080;11.896;2023-09-19T21:34:44;96318.00;;;13.20
33267;BMP180;19638;49.080;11.896;2023-09-19T21:38:50;96323.00;;;13.20
33267;BMP180;19638;49.080;11.896;2023-09-19T21:42:53;96325.00;;;13.10
33267;BMP180;19638;49.080;11.896;2023-09-19T21:46:56;96319.00;;;13.10
33267;BMP180;19638;49.080;11.896;2023-09-19T21:51:06;96323.00;;;13.00
33267;BMP180;19638;49.080;11.896;2023-09-19T21:55:12;96312.00;;;12.80
33267;BMP180;19638;49.080;11.896;2023-09-19T21:59:17;96315.00;;;12.80
33267;BMP180;19638;49.080;11.896;2023-09-19T22:03:21;96318.00;;;12.80
33267;BMP180;19638;49.080;11.896;2023-09-19T22:07:31;96315.00;;;12.80
33267;BMP180;19638;49.080;11.896;2023-09-19T22:11:39;96310.00;;;12.70
33267;BMP180;19638;49.080;11.896;2023-09-19T22:15:44;96298.00;;;12.60
33267;BMP180;19638;49.080;11.896;2023-09-19T22:19:53;96297.00;;;12.50
33267;BMP180;19638;49.080;11.896;2023-09-19T22:24:01;96293.00;;;12.40
33267;BMP180;19638;49.080;11.896;2023-09-19T22:28:07;96297.00;;;12.30
33267;BMP180;19638;49.080;11.896;2023-09-19T22:32:13;96312.00;;;12.40
33267;BMP180;19638;49.080;11.896;2023-09-19T22:36:17;96299.00;;;12.50
33267;BMP180;19638;49.080;11.896;2023-09-19T22:40:27;96303.00;;;12.50
33267;BMP180;19638;49.080;11.896;2023-09-19T22:44:38;96299.00;;;12.40
33267;BMP180;19638;49.080;11.896;2023-09-19T22:48:47;96306.00;;;12.30
33267;BMP180;19638;49.080;11.896;2023-09-19T22:52:52;96303.00;;;12.30
33267;BMP180;19638;49.080;11.896;2023-09-19T22:57:01;96307.00;;;12.30
33267;BMP180;19638;49.080;11.896;2023-09-19T23:01:07;96306.00;;;12.40
33267;BMP180;19638;49.080;11.896;2023-09-19T23:05:16;96307.00;;;12.40
33267;BMP180;19638;49.080;11.896;2023-09-19T23:09:21;96311.00;;;12.50
33267;BMP180;19638;49.080;11.896;2023-09-19T23:13:28;96306.00;;;12.50
33267;BMP180;19638;49.080;11.896;2023-09-19T23:17:32;96305.00;;;12.50
33267;BMP180;19638;49.080;11.896;2023-09-19T23:21:40;96308.00;;;12.50
33267;BMP180;19638;49.080;11.896;2023-09-19T23:25:49;96316.00;;;12.40